createdAt,value
2019-04-06T00:02:26.525Z,89.26
2019-04-06T00:07:32.359Z,89.44
2019-04-06T00:12:37.691Z,89.36
2019-04-06T00:17:43.409Z,89.89
2019-04-06T00:22:48.954Z,89.66
2019-04-06T00:27:54.308Z,89.96
2019-04-06T00:33:11.135Z,89.83
2019-04-06T00:38:16.940Z,89.71
2019-04-06T00:43:22.461Z,89.80
2019-04-06T00:48:28.158Z,89.68
2019-04-06T00:53:33.546Z,89.69
2019-04-06T00:58:38.854Z,89.50
2019-04-06T01:03:44.067Z,89.71
2019-04-06T01:08:49.452Z,89.65
2019-04-06T01:13:55.169Z,89.86
2019-04-06T01:19:00.794Z,89.47
2019-04-06T01:24:06.244Z,89.46
2019-04-06T01:29:11.606Z,89.53
2019-04-06T01:34:16.884Z,89.44
2019-04-06T01:39:22.258Z,89.58
2019-04-06T01:44:27.869Z,89.55
2019-04-06T01:49:33.282Z,89.33
2019-04-06T01:54:39.082Z,89.60
2019-04-06T01:59:44.503Z,89.68
2019-04-06T02:04:49.846Z,89.77
2019-04-06T02:09:55.092Z,89.83
2019-04-06T02:15:00.451Z,89.69
2019-04-06T02:20:06.509Z,89.45
2019-04-06T02:25:12.157Z,89.87
2019-04-06T02:30:33.148Z,89.89
2019-04-06T02:35:57.636Z,89.65
2019-04-06T02:41:08.946Z,89.79
2019-04-06T02:46:14.887Z,89.71
2019-04-06T02:51:20.482Z,89.86
2019-04-06T02:56:26.142Z,90.12
2019-04-06T03:01:31.798Z,90.59
2019-04-06T03:06:38.036Z,90.50
2019-04-06T03:11:43.302Z,90.38
2019-04-06T03:16:48.676Z,90.34
2019-04-06T03:21:53.948Z,89.47
2019-04-06T03:27:02.446Z,89.54
2019-04-06T03:32:06.374Z,90.23
2019-04-06T03:37:12.083Z,90.15
2019-04-06T03:42:17.498Z,89.26
2019-04-06T03:47:22.780Z,88.86
2019-04-06T03:52:28.390Z,88.72
2019-04-06T03:57:33.871Z,89.33
2019-04-06T04:02:39.181Z,90.31
2019-04-06T04:07:45.769Z,90.03
2019-04-06T04:12:51.468Z,89.14
2019-04-06T04:17:57.166Z,90.10
2019-04-06T04:23:02.618Z,89.64
2019-04-06T04:28:07.987Z,89.39
2019-04-06T04:33:13.450Z,89.94
2019-04-06T04:38:18.771Z,89.25
2019-04-06T04:43:24.071Z,88.75
2019-04-06T04:48:29.508Z,88.91
2019-04-06T04:53:35.043Z,88.58
2019-04-06T04:58:40.350Z,88.61
2019-04-06T05:03:45.791Z,89.63
2019-04-06T05:08:50.997Z,89.88
2019-04-06T05:14:32.583Z,89.25
2019-04-06T05:19:38.016Z,89.48
2019-04-06T05:24:43.332Z,89.81
2019-04-06T05:29:48.864Z,89.59
2019-04-06T05:34:54.176Z,89.34
2019-04-06T05:39:59.390Z,89.64
2019-04-06T05:45:04.949Z,89.57
2019-04-06T05:50:10.326Z,89.44
2019-04-06T05:55:15.818Z,89.31
2019-04-06T06:00:21.108Z,88.82
2019-04-06T06:05:26.681Z,88.80
2019-04-06T06:10:32.150Z,88.58
2019-04-06T06:15:38.470Z,88.32
2019-04-06T06:20:44.958Z,88.13
2019-04-06T06:25:50.382Z,88.20
2019-04-06T06:30:56.074Z,87.71
2019-04-06T06:36:01.613Z,87.50
2019-04-06T06:41:07.115Z,87.22
2019-04-06T06:46:12.407Z,86.06
2019-04-06T06:51:17.814Z,85.23
2019-04-06T06:56:23.246Z,84.67
2019-04-06T07:01:28.999Z,84.56
2019-04-06T07:06:34.237Z,84.54
2019-04-06T07:11:39.520Z,84.22
2019-04-06T07:16:45.017Z,83.87
2019-04-06T07:21:50.354Z,83.74
2019-04-06T07:26:56.817Z,83.79
2019-04-06T07:32:02.214Z,83.69
2019-04-06T07:37:07.723Z,82.75
2019-04-06T07:42:13.128Z,82.50
2019-04-06T07:47:18.724Z,81.53
2019-04-06T07:52:24.163Z,81.47
2019-04-06T07:57:29.728Z,80.76
2019-04-06T08:02:35.304Z,80.46
2019-04-06T08:07:40.645Z,80.33
2019-04-06T08:12:46.156Z,79.69
2019-04-06T08:17:52.997Z,79.90
2019-04-06T08:22:59.282Z,79.56
2019-04-06T08:28:05.526Z,77.74
2019-04-06T08:33:11.340Z,76.73
2019-04-06T08:38:17.044Z,76.78
2019-04-06T08:43:24.043Z,74.81
2019-04-06T08:48:29.358Z,75.61
2019-04-06T08:53:34.799Z,74.10
2019-04-06T08:58:40.672Z,73.45
2019-04-06T09:03:46.003Z,73.80
2019-04-06T09:08:51.691Z,71.90
2019-04-06T09:13:58.423Z,70.70
2019-04-06T09:19:04.161Z,70.25
2019-04-06T09:24:09.747Z,69.09
2019-04-06T09:29:23.178Z,68.02
2019-04-06T09:34:22.476Z,66.86
2019-04-06T09:39:27.930Z,66.70
2019-04-06T09:44:52.217Z,67.14
2019-04-06T09:50:15.516Z,63.12
2019-04-06T09:55:46.359Z,64.24
2019-04-06T10:00:58.892Z,64.40
2019-04-06T10:06:32.564Z,63.51
2019-04-06T10:12:15.124Z,61.84
2019-04-06T10:17:50.862Z,62.90
2019-04-06T10:23:17.948Z,61.05
2019-04-06T10:28:41.189Z,61.89
2019-04-06T10:33:57.475Z,60.82
2019-04-06T10:39:35.855Z,59.62
2019-04-06T10:45:00.471Z,60.58
2019-04-06T10:50:27.933Z,58.84
2019-04-06T10:55:53.031Z,57.77
2019-04-06T11:01:16.322Z,57.99
2019-04-06T11:06:47.253Z,56.72
2019-04-06T11:12:10.703Z,55.61
2019-04-06T11:17:38.560Z,56.31
2019-04-06T11:23:02.357Z,56.04
2019-04-06T11:28:21.187Z,55.76
2019-04-06T11:34:00.598Z,55.93
2019-04-06T11:39:37.586Z,55.51
2019-04-06T11:45:06.678Z,56.12
2019-04-06T11:50:38.060Z,56.12
2019-04-06T11:56:18.891Z,55.65
2019-04-06T12:01:36.461Z,55.53
2019-04-06T12:07:05.024Z,55.18
2019-04-06T12:12:20.549Z,56.20
2019-04-06T12:17:48.283Z,54.94
2019-04-06T12:23:00.480Z,54.39
2019-04-06T12:28:16.668Z,53.28
2019-04-06T12:33:39.861Z,54.62
2019-04-06T12:38:55.070Z,55.30
2019-04-06T12:44:18.209Z,54.51
2019-04-06T12:50:01.561Z,53.38
2019-04-06T12:55:29.619Z,53.29
2019-04-06T13:00:54.390Z,53.67
2019-04-06T13:06:11.320Z,55.15
2019-04-06T13:11:32.209Z,56.88
2019-04-06T13:16:43.563Z,56.25
2019-04-06T13:22:13.021Z,56.66
2019-04-06T13:27:25.280Z,56.53
2019-04-06T13:32:40.788Z,55.86
2019-04-06T13:38:05.410Z,56.55
2019-04-06T13:43:17.719Z,55.62
2019-04-06T13:49:01.188Z,56.23
2019-04-06T13:54:18.369Z,55.13
2019-04-06T13:59:33.129Z,55.48
2019-04-06T14:04:48.015Z,55.36
2019-04-06T14:10:09.325Z,55.27
2019-04-06T14:15:32.519Z,55.33
2019-04-06T14:20:55.812Z,56.09
2019-04-06T14:26:18.943Z,55.50
2019-04-06T14:31:52.358Z,55.37
2019-04-06T14:37:20.469Z,53.78
2019-04-06T14:42:37.746Z,53.14
2019-04-06T14:48:02.037Z,52.13
2019-04-06T14:53:14.905Z,51.31
2019-04-06T14:58:58.226Z,50.55
2019-04-06T15:04:23.512Z,50.10
2019-04-06T15:09:46.368Z,49.54
2019-04-06T15:15:11.773Z,50.93
2019-04-06T15:20:39.986Z,50.25
2019-04-06T15:25:54.913Z,51.08
2019-04-06T15:31:06.625Z,51.08
2019-04-06T15:36:20.921Z,51.04
2019-04-06T15:42:03.738Z,51.14
2019-04-06T15:47:22.594Z,51.27
2019-04-06T15:52:55.965Z,51.74
2019-04-06T15:58:07.787Z,50.44
2019-04-06T16:03:26.216Z,51.11
2019-04-06T16:08:41.183Z,49.36
2019-04-06T16:14:04.271Z,43.22
2019-04-06T16:19:20.984Z,42.77
2019-04-06T16:24:38.753Z,46.24
2019-04-06T16:30:12.007Z,47.10
2019-04-06T16:35:43.809Z,48.25
2019-04-06T16:41:23.444Z,48.57
2019-04-06T16:46:53.798Z,48.68
2019-04-06T16:52:20.333Z,49.87
2019-04-06T16:57:45.575Z,50.47
2019-04-06T17:03:18.770Z,51.87
2019-04-06T17:08:46.953Z,51.39
2019-04-06T17:14:13.453Z,51.49
2019-04-06T17:19:37.440Z,52.08
2019-04-06T17:25:02.982Z,53.36
2019-04-06T17:30:15.845Z,54.33
2019-04-06T17:35:45.214Z,55.82
2019-04-06T17:41:00.388Z,57.41
2019-04-06T17:46:23.378Z,58.49
2019-04-06T17:51:37.630Z,59.95
2019-04-06T17:56:54.106Z,60.43
2019-04-06T18:02:30.308Z,62.40
2019-04-06T18:08:03.828Z,64.50
2019-04-06T18:13:34.483Z,65.40
2019-04-06T18:18:40.109Z,66.47
2019-04-06T18:23:46.146Z,67.89
2019-04-06T18:28:51.595Z,68.91
2019-04-06T18:33:56.968Z,69.51
2019-04-06T18:39:07.190Z,70.14
2019-04-06T18:44:12.991Z,69.88
2019-04-06T18:49:18.369Z,70.72
2019-04-06T18:54:24.707Z,71.59
2019-04-06T18:59:29.947Z,71.92
2019-04-06T19:04:35.347Z,72.21
2019-04-06T19:09:41.828Z,72.60
2019-04-06T19:14:47.403Z,72.93
2019-04-06T19:19:52.694Z,74.04
2019-04-06T19:24:58.032Z,74.86
2019-04-06T19:30:04.840Z,75.35
2019-04-06T19:35:10.875Z,75.30
2019-04-06T19:40:16.392Z,75.56
2019-04-06T19:45:23.746Z,75.67
2019-04-06T19:50:29.028Z,76.20
2019-04-06T19:55:35.690Z,76.43
2019-04-06T20:00:41.315Z,76.74
2019-04-06T20:05:47.349Z,76.60
2019-04-06T20:10:53.142Z,76.99
2019-04-06T20:15:58.750Z,77.56
2019-04-06T20:21:04.068Z,77.65
2019-04-06T20:26:09.366Z,77.61
2019-04-06T20:31:14.879Z,77.76
2019-04-06T20:36:20.463Z,77.98
2019-04-06T20:41:26.148Z,78.45
2019-04-06T20:46:32.016Z,78.73
2019-04-06T20:51:39.261Z,78.73
2019-04-06T20:56:53.908Z,79.21
2019-04-06T21:01:52.185Z,79.51
2019-04-06T21:06:57.712Z,79.60
2019-04-06T21:12:03.722Z,79.66
2019-04-06T21:17:09.593Z,79.76
2019-04-06T21:22:15.019Z,79.83
2019-04-06T21:27:20.396Z,80.22
2019-04-06T21:32:26.120Z,80.28
2019-04-06T21:37:31.539Z,80.43
2019-04-06T21:42:37.634Z,80.28
2019-04-06T21:47:43.339Z,80.09
2019-04-06T21:52:49.686Z,79.95
2019-04-06T21:57:55.352Z,80.15
2019-04-06T22:03:01.628Z,80.76
2019-04-06T22:08:07.369Z,80.31
2019-04-06T22:13:13.196Z,80.03
2019-04-06T22:18:19.330Z,80.45
2019-04-06T22:23:25.228Z,80.88
2019-04-06T22:28:31.110Z,80.94
2019-04-06T22:33:36.505Z,81.12
2019-04-06T22:38:42.123Z,81.39
2019-04-06T22:43:47.883Z,81.03
2019-04-06T22:48:53.183Z,80.91
2019-04-06T22:53:58.619Z,81.13
2019-04-06T22:59:03.912Z,81.38
2019-04-06T23:04:45.735Z,81.28
2019-04-06T23:09:41.697Z,81.15
2019-04-06T23:14:47.770Z,81.16
2019-04-06T23:19:53.555Z,80.75
2019-04-06T23:24:59.031Z,80.82
2019-04-06T23:30:05.072Z,81.54
2019-04-06T23:35:10.807Z,82.46
2019-04-06T23:40:16.798Z,81.80
2019-04-06T23:45:23.532Z,81.22
2019-04-06T23:50:29.391Z,80.77
2019-04-06T23:55:35.344Z,81.10
